Oregonia, Ohio
Current Conditions -  °F | °C
As of 7:53 PM on Friday 24 Oct 2014 (Local Time) from KMGY Reporting Station
Clear Clear  
Wind Chill: 56°   Ceiling: Unl
Heat Index: 56°   Visibility: 10mi
Dew Point: 40°   Wind: 3mph
Humidity: 55%   Direction: 190°S
Pressure: 30.03"   Gusts: NA
Location:  39.45°N, 84.1°W
Report Text: KMGY 242353Z AUTO 19003KT 10SM CLR 13/04 A3003 RMK AO2 SLP171 T01330044 10178 20128 53002
Loading
Personal Weather Stations






























Interactive Weather Map
Tropical Storm Tracking
New forecast layout! Learn more

10-Day Weather Forecast

Advertisements
Track Severe Weather on mobile